createdAt,value
2022-09-07T00:00:55.901Z,104460.88
2022-09-07T00:03:22.959Z,104534.59
2022-09-07T00:05:51.338Z,104469.28
2022-09-07T00:08:20.734Z,104459.13
2022-09-07T00:11:02.124Z,104461.28
2022-09-07T00:13:32.789Z,103949.00
2022-09-07T00:16:05.208Z,103928.91
2022-09-07T00:18:31.853Z,103914.06
2022-09-07T00:21:17.846Z,103911.44
2022-09-07T00:23:45.123Z,103843.19
2022-09-07T00:26:15.417Z,103836.13
2022-09-07T00:28:42.752Z,103761.50
2022-09-07T00:31:12.232Z,103679.75
2022-09-07T00:33:39.293Z,103606.47
2022-09-07T00:36:06.074Z,103357.47
2022-09-07T00:38:32.577Z,103465.31
2022-09-07T00:40:59.196Z,103525.94
2022-09-07T00:43:32.320Z,103498.34
2022-09-07T00:45:59.327Z,103382.38
2022-09-07T00:48:33.769Z,103449.50
2022-09-07T00:51:05.515Z,103488.69
2022-09-07T00:53:38.105Z,103406.66
2022-09-07T00:56:06.187Z,103391.31
2022-09-07T00:58:35.996Z,103418.81
2022-09-07T01:01:02.536Z,103344.97
2022-09-07T01:03:33.152Z,103412.81
2022-09-07T01:06:06.728Z,103288.78
2022-09-07T01:08:34.721Z,103343.94
2022-09-07T01:11:01.912Z,103279.22
2022-09-07T01:13:28.451Z,103276.31
2022-09-07T01:16:22.306Z,103330.31
2022-09-07T01:18:57.841Z,103318.66
2022-09-07T01:22:06.089Z,103223.28
2022-09-07T01:24:45.290Z,103265.63
2022-09-07T01:27:52.386Z,103223.34
2022-09-07T01:30:20.380Z,103200.97
2022-09-07T01:33:21.442Z,103250.31
2022-09-07T01:36:14.229Z,103339.19
2022-09-07T01:38:45.499Z,103290.22
2022-09-07T01:41:17.299Z,103275.41
2022-09-07T01:44:00.759Z,103277.69
2022-09-07T01:46:29.740Z,103275.78
2022-09-07T01:49:04.583Z,103271.16
2022-09-07T01:51:34.706Z,103267.34
2022-09-07T01:54:10.101Z,103222.19
2022-09-07T01:56:42.374Z,103284.25
2022-09-07T01:59:28.940Z,103271.72
2022-09-07T02:02:05.778Z,103253.09
2022-09-07T02:04:41.654Z,103291.84
2022-09-07T02:07:24.617Z,103324.41
2022-09-07T02:10:00.285Z,103293.03
2022-09-07T02:12:45.031Z,103293.09
2022-09-07T02:15:18.277Z,103285.81
2022-09-07T02:17:52.326Z,103172.47
2022-09-07T02:20:24.211Z,103184.91
2022-09-07T02:22:58.149Z,103158.78
2022-09-07T02:25:29.548Z,103157.84
2022-09-07T02:28:06.342Z,103212.84
2022-09-07T02:30:32.958Z,103163.13
2022-09-07T02:32:59.699Z,103049.72
2022-09-07T02:35:26.128Z,103049.09
2022-09-07T02:37:53.423Z,103024.00
2022-09-07T02:40:20.032Z,103042.44
2022-09-07T02:42:48.389Z,103075.50
2022-09-07T02:45:16.335Z,103098.56
2022-09-07T02:48:04.527Z,103163.00
2022-09-07T02:50:54.720Z,103178.94
2022-09-07T02:53:42.473Z,103156.78
2022-09-07T02:56:23.804Z,103210.59
2022-09-07T02:59:09.135Z,103127.03
2022-09-07T03:01:53.996Z,103215.06
2022-09-07T03:04:39.287Z,103211.09
2022-09-07T03:07:12.227Z,103119.38
2022-09-07T03:09:43.673Z,103150.59
2022-09-07T03:12:10.524Z,103129.81
2022-09-07T03:14:40.073Z,103124.22
2022-09-07T03:17:07.442Z,103154.19
2022-09-07T03:19:34.045Z,103161.66
2022-09-07T03:22:00.484Z,103120.22
2022-09-07T03:24:26.900Z,103122.97
2022-09-07T03:26:53.406Z,103115.94
2022-09-07T03:29:20.103Z,103137.47
2022-09-07T03:31:47.108Z,103074.66
2022-09-07T03:34:13.838Z,103065.13
2022-09-07T03:36:40.504Z,103036.44
2022-09-07T03:39:07.006Z,103022.56
2022-09-07T03:41:34.415Z,103006.41
2022-09-07T03:44:05.085Z,103025.47
2022-09-07T03:46:32.721Z,103029.38
2022-09-07T03:48:59.305Z,103040.97
2022-09-07T03:51:25.925Z,103111.50
2022-09-07T03:53:52.339Z,103022.28
2022-09-07T03:56:21.770Z,102982.72
2022-09-07T03:58:49.697Z,103162.63
2022-09-07T04:01:19.715Z,103171.09
2022-09-07T04:03:46.872Z,103180.28
2022-09-07T04:06:14.760Z,103128.13
2022-09-07T04:08:42.393Z,103143.69
2022-09-07T04:11:12.991Z,103146.69
2022-09-07T04:13:39.448Z,102368.25
2022-09-07T04:16:20.585Z,102457.97
2022-09-07T04:18:48.038Z,102461.41
2022-09-07T04:21:14.423Z,102486.38
2022-09-07T04:23:42.082Z,102505.66
2022-09-07T04:26:15.070Z,102503.25
2022-09-07T04:28:41.666Z,102466.34
2022-09-07T04:31:08.554Z,102423.78
2022-09-07T04:33:35.205Z,102422.88
2022-09-07T04:36:01.937Z,102456.16
2022-09-07T04:38:28.976Z,102409.38
2022-09-07T04:41:00.202Z,102379.38
2022-09-07T04:43:27.392Z,102358.56
2022-09-07T04:45:53.847Z,102415.91
2022-09-07T04:48:20.351Z,102450.50
2022-09-07T04:50:46.790Z,102424.44
2022-09-07T04:53:13.239Z,102438.75
2022-09-07T04:55:39.744Z,102456.44
2022-09-07T04:58:06.275Z,102462.81
2022-09-07T05:00:32.715Z,102471.59
2022-09-07T05:02:59.168Z,102488.63
2022-09-07T05:05:25.576Z,102405.19
2022-09-07T05:07:51.971Z,102411.25
2022-09-07T05:10:18.376Z,102397.81
2022-09-07T05:12:44.840Z,102423.72
2022-09-07T05:15:11.491Z,102453.69
2022-09-07T05:17:37.957Z,102434.81
2022-09-07T05:20:04.775Z,102458.72
2022-09-07T05:22:31.187Z,102461.84
2022-09-07T05:24:57.653Z,102472.75
2022-09-07T05:27:24.118Z,102462.78
2022-09-07T05:30:06.335Z,102455.59
2022-09-07T05:32:33.494Z,102459.53
2022-09-07T05:34:59.997Z,102435.78
2022-09-07T05:37:26.450Z,102388.78
2022-09-07T05:39:52.908Z,102420.22
2022-09-07T05:42:19.349Z,102458.16
2022-09-07T05:44:46.118Z,102433.97
2022-09-07T05:47:13.232Z,102447.91
2022-09-07T05:49:39.875Z,102455.28
2022-09-07T05:52:06.383Z,102396.00
2022-09-07T05:54:32.821Z,102396.66
2022-09-07T05:56:59.334Z,102315.72
2022-09-07T05:59:25.761Z,102328.22
2022-09-07T06:01:52.346Z,102313.91
2022-09-07T06:04:18.975Z,102292.34
2022-09-07T06:06:59.264Z,102294.13
2022-09-07T06:09:32.003Z,102304.94
2022-09-07T06:11:58.489Z,102300.94
2022-09-07T06:14:25.166Z,102296.53
2022-09-07T06:16:51.679Z,102216.09
2022-09-07T06:19:18.167Z,102230.75
2022-09-07T06:21:44.682Z,102187.03
2022-09-07T06:24:12.200Z,102196.25
2022-09-07T06:26:38.724Z,102186.41
2022-09-07T06:29:05.158Z,102137.19
2022-09-07T06:31:32.108Z,102100.28
2022-09-07T06:33:58.713Z,102023.75
2022-09-07T06:36:26.838Z,101952.84
2022-09-07T06:38:54.753Z,101908.81
2022-09-07T06:44:12.809Z,101828.44
2022-09-07T06:49:26.030Z,101833.13
2022-09-07T06:51:52.574Z,101849.47
2022-09-07T06:57:05.949Z,102092.19
2022-09-07T06:59:32.415Z,102223.91
2022-09-07T07:01:58.852Z,102284.28
2022-09-07T07:04:25.326Z,102303.25
2022-09-07T07:06:51.798Z,102339.66
2022-09-07T07:09:18.288Z,102416.25
2022-09-07T07:11:44.727Z,102449.56
2022-09-07T07:14:15.089Z,102534.00
2022-09-07T07:16:41.675Z,102589.56
2022-09-07T07:19:08.421Z,102620.44
2022-09-07T07:21:55.300Z,102656.53
2022-09-07T07:24:22.431Z,102656.34
2022-09-07T07:26:48.917Z,102682.28
2022-09-07T07:29:18.486Z,102670.22
2022-09-07T07:31:46.086Z,102715.34
2022-09-07T07:36:56.387Z,102727.38
2022-09-07T07:42:09.546Z,102741.03
2022-09-07T07:44:35.935Z,102753.81
2022-09-07T07:47:02.386Z,102740.13
2022-09-07T07:49:28.826Z,102783.78
2022-09-07T07:54:42.803Z,102806.44
2022-09-07T07:57:09.260Z,102792.53
2022-09-07T07:59:35.882Z,102803.41
2022-09-07T08:02:02.601Z,102735.56
2022-09-07T08:04:29.123Z,102765.91
2022-09-07T08:06:55.597Z,102798.59
2022-09-07T08:09:22.008Z,102764.41
2022-09-07T08:11:48.997Z,102733.56
2022-09-07T08:14:15.395Z,102652.63
2022-09-07T08:16:47.967Z,102648.38
2022-09-07T08:19:14.407Z,102566.97
2022-09-07T08:21:40.858Z,102629.09
2022-09-07T08:24:07.476Z,102545.22
2022-09-07T08:26:33.968Z,102606.34
2022-09-07T08:29:00.375Z,102580.19
2022-09-07T08:31:26.884Z,102516.78
2022-09-07T08:33:53.364Z,102525.00
2022-09-07T08:36:21.050Z,102437.75
2022-09-07T08:38:48.033Z,102455.75
2022-09-07T08:41:39.247Z,102476.72
2022-09-07T08:44:23.726Z,102509.06
2022-09-07T08:47:19.682Z,102436.63
2022-09-07T08:49:53.726Z,102309.56
2022-09-07T08:52:25.320Z,102250.66
2022-09-07T08:55:09.082Z,102199.91
2022-09-07T08:57:40.320Z,102301.53
2022-09-07T09:00:12.454Z,102288.06
2022-09-07T09:02:45.518Z,102194.59
2022-09-07T09:05:31.909Z,102187.97
2022-09-07T09:08:12.495Z,102164.69
2022-09-07T09:10:42.145Z,102116.56
2022-09-07T09:13:24.045Z,102037.75
2022-09-07T09:15:53.357Z,102058.03
2022-09-07T09:18:43.811Z,102020.44
2022-09-07T09:21:15.490Z,101752.31
2022-09-07T09:23:43.974Z,101734.09
2022-09-07T09:26:16.550Z,101793.84
2022-09-07T09:28:42.996Z,101769.63
2022-09-07T09:31:18.703Z,101713.88
2022-09-07T09:34:05.089Z,101677.56
2022-09-07T09:36:34.172Z,101661.28
2022-09-07T09:39:00.745Z,101642.50
2022-09-07T09:41:36.968Z,101664.91
2022-09-07T09:44:03.604Z,101696.88
2022-09-07T09:46:35.234Z,101733.94
2022-09-07T09:49:26.067Z,101759.09
2022-09-07T09:54:44.380Z,101744.00
2022-09-07T09:57:18.548Z,101751.56
2022-09-07T10:00:05.497Z,101738.28
2022-09-07T10:05:29.420Z,101740.31
2022-09-07T10:07:56.318Z,101704.78
2022-09-07T10:10:22.856Z,101734.56
2022-09-07T10:12:53.700Z,101729.03
2022-09-07T10:15:35.418Z,101720.50
2022-09-07T10:18:06.662Z,101727.03
2022-09-07T10:20:37.740Z,101712.50
2022-09-07T10:23:06.356Z,101697.00
2022-09-07T10:25:38.677Z,101725.53
2022-09-07T10:28:09.481Z,101708.38
2022-09-07T10:31:14.681Z,101665.28
2022-09-07T10:34:32.279Z,101653.72
2022-09-07T10:37:06.523Z,101595.06
2022-09-07T10:39:39.578Z,101586.88
2022-09-07T10:42:08.926Z,101592.66
2022-09-07T10:45:01.169Z,101588.47
2022-09-07T10:47:30.584Z,101472.66
2022-09-07T10:50:23.987Z,101426.53
2022-09-07T10:53:40.150Z,101373.72
2022-09-07T10:56:13.926Z,101396.59
2022-09-07T10:59:02.184Z,101402.41
2022-09-07T11:01:56.675Z,101342.25
2022-09-07T11:04:35.307Z,101349.41
2022-09-07T11:07:45.791Z,101333.28
2022-09-07T11:10:23.370Z,101333.81
2022-09-07T11:12:54.066Z,101349.50
2022-09-07T11:15:31.376Z,101318.13
2022-09-07T11:18:12.257Z,101304.81
2022-09-07T11:20:45.040Z,101318.59
2022-09-07T11:23:26.648Z,101305.84
2022-09-07T11:26:20.232Z,101304.59
2022-09-07T11:31:44.275Z,101270.47
2022-09-07T11:34:26.100Z,101258.25
2022-09-07T11:37:26.622Z,101244.84
2022-09-07T11:40:14.132Z,101232.22
2022-09-07T11:42:55.765Z,101247.22
2022-09-07T11:45:31.465Z,101220.59
2022-09-07T11:48:03.876Z,101189.50
2022-09-07T11:50:36.591Z,101195.59
2022-09-07T11:53:08.576Z,101193.88
2022-09-07T11:55:44.107Z,101197.09
2022-09-07T11:58:32.317Z,101207.38
2022-09-07T12:01:20.807Z,101194.41
2022-09-07T12:04:19.684Z,101174.28
2022-09-07T12:07:16.176Z,101188.59
2022-09-07T12:10:04.525Z,101194.91
2022-09-07T12:12:56.371Z,101172.03
2022-09-07T12:16:00.234Z,101192.28
2022-09-07T12:18:35.885Z,101196.94
2022-09-07T12:21:02.318Z,101189.38
2022-09-07T12:23:32.080Z,101177.09
2022-09-07T12:26:35.603Z,101180.69
2022-09-07T12:29:01.972Z,101180.53
2022-09-07T12:31:57.379Z,101141.84
2022-09-07T12:34:31.034Z,101168.34
2022-09-07T12:36:59.152Z,101151.97
2022-09-07T12:39:30.469Z,101137.22
2022-09-07T12:42:37.444Z,101164.94
2022-09-07T12:45:39.381Z,101154.53
2022-09-07T12:48:14.902Z,101153.97
2022-09-07T12:51:13.251Z,101155.31
2022-09-07T12:53:57.745Z,101147.47
2022-09-07T12:56:42.759Z,101145.53
2022-09-07T12:59:46.130Z,101144.44
2022-09-07T13:02:27.757Z,101116.16
2022-09-07T13:05:11.574Z,101121.56
2022-09-07T13:08:13.380Z,101132.44
2022-09-07T13:10:42.099Z,101138.75
2022-09-07T13:13:14.284Z,101133.84
2022-09-07T13:15:45.968Z,101133.31
2022-09-07T13:18:35.356Z,101123.16
2022-09-07T13:21:07.765Z,101133.16
2022-09-07T13:27:10.982Z,101124.13
2022-09-07T13:29:49.165Z,101093.63
2022-09-07T13:35:24.421Z,101107.28
2022-09-07T13:38:02.806Z,101123.88
2022-09-07T13:40:40.190Z,101113.59
2022-09-07T13:43:19.856Z,101093.31
2022-09-07T13:45:55.214Z,101100.53
2022-09-07T13:48:33.878Z,101111.59
2022-09-07T13:51:08.685Z,101093.81
2022-09-07T13:54:10.788Z,101109.69
2022-09-07T13:57:11.757Z,101115.31
2022-09-07T13:59:42.144Z,101105.44
2022-09-07T14:02:22.632Z,101115.81
2022-09-07T14:04:52.343Z,101098.03
2022-09-07T14:07:23.859Z,101079.38
2022-09-07T14:10:09.455Z,101072.38
2022-09-07T14:12:51.412Z,101096.25
2022-09-07T14:15:29.035Z,101098.34
2022-09-07T14:18:04.789Z,101086.19
2022-09-07T14:20:31.491Z,101065.41
2022-09-07T14:22:59.011Z,101087.28
2022-09-07T14:25:25.814Z,101092.53
2022-09-07T14:27:52.280Z,101096.28
2022-09-07T14:30:32.699Z,101093.88
2022-09-07T14:33:05.985Z,101096.25
2022-09-07T14:35:34.387Z,101070.66
2022-09-07T14:38:06.682Z,101083.09
2022-09-07T14:40:34.275Z,101077.59
2022-09-07T14:43:00.818Z,101089.78
2022-09-07T14:45:32.893Z,101072.53
2022-09-07T14:47:59.778Z,101084.56
2022-09-07T14:50:36.906Z,101052.34
2022-09-07T14:56:01.523Z,101076.53
2022-09-07T14:58:31.037Z,101070.88
2022-09-07T15:04:01.036Z,101050.97
2022-09-07T15:09:38.021Z,101061.03
2022-09-07T15:12:38.108Z,101048.25
2022-09-07T15:15:26.314Z,101066.78
2022-09-07T15:17:57.698Z,101055.41
2022-09-07T15:20:42.771Z,101037.84
2022-09-07T15:23:17.187Z,101052.13
2022-09-07T15:25:50.972Z,101050.25
2022-09-07T15:34:07.346Z,101029.06
2022-09-07T15:36:33.768Z,101036.72
2022-09-07T15:39:00.757Z,101038.88
2022-09-07T15:41:27.880Z,101015.94
2022-09-07T15:43:54.273Z,101035.19
2022-09-07T15:46:21.177Z,101037.25
2022-09-07T15:48:52.581Z,101047.16
2022-09-07T15:54:07.731Z,101040.16
2022-09-07T15:56:38.446Z,101040.81
2022-09-07T15:59:05.515Z,101011.47
2022-09-07T16:04:18.435Z,100993.97
2022-09-07T16:06:47.864Z,101035.34
2022-09-07T16:09:14.953Z,101031.03
2022-09-07T16:11:41.992Z,101016.41
2022-09-07T16:14:08.700Z,101022.78
2022-09-07T16:19:21.629Z,101025.63
2022-09-07T16:21:48.078Z,101026.38
2022-09-07T16:24:14.894Z,101025.22
2022-09-07T16:26:41.437Z,100996.69
2022-09-07T16:29:08.008Z,101010.34
2022-09-07T16:31:35.037Z,101017.97
2022-09-07T16:34:02.829Z,101017.44
2022-09-07T16:36:30.360Z,100990.03
2022-09-07T16:38:59.652Z,101019.28
2022-09-07T16:41:29.427Z,101018.41
2022-09-07T16:43:56.090Z,101015.41
2022-09-07T16:46:25.564Z,101020.06
2022-09-07T16:48:52.622Z,101015.94
2022-09-07T16:51:20.836Z,101027.06
2022-09-07T16:53:48.737Z,101019.97
2022-09-07T16:56:17.826Z,101020.50
2022-09-07T16:58:46.992Z,101017.84
2022-09-07T17:01:15.837Z,101020.50
2022-09-07T17:03:43.138Z,100983.41
2022-09-07T17:06:11.928Z,101009.94
2022-09-07T17:08:39.682Z,101008.16
2022-09-07T17:11:18.101Z,101006.25
2022-09-07T17:13:45.316Z,101000.38
2022-09-07T17:16:15.023Z,101003.09
2022-09-07T17:21:34.213Z,100970.25
2022-09-07T17:24:03.842Z,100999.16
2022-09-07T17:26:31.225Z,100999.44
2022-09-07T17:29:00.330Z,101004.28
2022-09-07T17:34:24.015Z,100997.75
2022-09-07T17:36:51.387Z,100989.47
2022-09-07T17:39:19.153Z,101002.19
2022-09-07T17:41:49.343Z,100999.50
2022-09-07T17:44:15.985Z,100985.75
2022-09-07T17:46:42.447Z,100992.38
2022-09-07T17:49:10.445Z,101000.41
2022-09-07T17:51:37.436Z,101011.84
2022-09-07T17:54:13.195Z,101009.28
2022-09-07T17:56:41.090Z,100986.41
2022-09-07T18:01:54.658Z,100966.84
2022-09-07T18:04:21.518Z,101000.16
2022-09-07T18:06:48.262Z,101003.13
2022-09-07T18:09:14.795Z,101007.91
2022-09-07T18:11:45.746Z,101012.47
2022-09-07T18:14:13.081Z,101011.75
2022-09-07T18:16:39.724Z,101004.03
2022-09-07T18:19:06.261Z,101005.88
2022-09-07T18:21:36.100Z,101010.44
2022-09-07T18:24:05.685Z,101011.47
2022-09-07T18:26:33.180Z,101001.47
2022-09-07T18:29:03.594Z,101007.03
2022-09-07T18:31:30.771Z,101013.69
2022-09-07T18:33:57.374Z,101013.97
2022-09-07T18:36:25.765Z,101024.63
2022-09-07T18:38:52.848Z,101023.56
2022-09-07T18:41:19.621Z,101016.41
2022-09-07T18:43:46.418Z,101006.59
2022-09-07T18:46:18.014Z,101013.53
2022-09-07T18:48:45.135Z,101006.63
2022-09-07T18:51:12.364Z,101026.22
2022-09-07T18:53:39.306Z,101003.69
2022-09-07T18:56:13.946Z,101025.97
2022-09-07T18:58:41.392Z,101027.78
2022-09-07T19:01:12.011Z,101033.38
2022-09-07T19:03:38.680Z,101013.78
2022-09-07T19:06:13.719Z,101032.88
2022-09-07T19:08:42.552Z,100989.34
2022-09-07T19:11:12.055Z,101023.34
2022-09-07T19:13:39.096Z,101019.88
2022-09-07T19:16:08.127Z,101024.91
2022-09-07T19:18:35.366Z,101016.16
2022-09-07T19:21:03.790Z,101005.00
2022-09-07T19:23:30.225Z,101027.56
2022-09-07T19:25:58.642Z,101029.91
2022-09-07T19:28:25.079Z,101027.78
2022-09-07T19:30:51.512Z,101034.16
2022-09-07T19:33:17.923Z,101028.59
2022-09-07T19:35:44.313Z,101028.09
2022-09-07T19:38:10.963Z,101022.50
2022-09-07T19:40:37.441Z,101021.72
2022-09-07T19:43:04.678Z,101025.13
2022-09-07T19:45:31.257Z,101028.06
2022-09-07T19:47:57.988Z,101019.81
2022-09-07T19:50:24.424Z,101020.09
2022-09-07T19:52:50.827Z,101023.81
2022-09-07T19:55:17.557Z,101021.72
2022-09-07T19:57:46.151Z,101015.38
2022-09-07T20:00:13.662Z,101024.63
2022-09-07T20:02:40.194Z,101021.16
2022-09-07T20:05:06.812Z,100986.03
2022-09-07T20:07:33.231Z,100993.72
2022-09-07T20:09:59.616Z,101003.84
2022-09-07T20:12:26.016Z,100994.81
2022-09-07T20:14:52.434Z,100996.47
2022-09-07T20:17:18.833Z,100972.78
2022-09-07T20:19:45.212Z,100999.63
2022-09-07T20:22:12.023Z,100990.28
2022-09-07T20:24:38.482Z,100983.88
2022-09-07T20:27:05.102Z,100983.59
2022-09-07T20:29:31.480Z,100964.25
2022-09-07T20:31:59.748Z,100983.84
2022-09-07T20:34:29.839Z,100982.53
2022-09-07T20:36:56.339Z,100951.50
2022-09-07T20:39:22.825Z,100979.06
2022-09-07T20:41:49.253Z,100987.78
2022-09-07T20:44:16.190Z,100987.28
2022-09-07T20:46:43.350Z,101004.00
2022-09-07T20:49:10.072Z,101009.16
2022-09-07T20:51:36.574Z,101007.38
2022-09-07T20:54:03.051Z,100974.13
2022-09-07T20:56:29.524Z,101008.06
2022-09-07T20:58:57.267Z,101009.78
2022-09-07T21:01:24.245Z,100994.31
2022-09-07T21:03:52.675Z,100994.91
2022-09-07T21:06:20.721Z,101009.22
2022-09-07T21:08:48.209Z,101008.72
2022-09-07T21:11:17.969Z,101053.25
2022-09-07T21:13:44.593Z,101059.38
2022-09-07T21:16:13.768Z,101019.75
2022-09-07T21:18:41.827Z,101031.91
2022-09-07T21:21:23.937Z,101051.34
2022-09-07T21:23:55.760Z,101050.41
2022-09-07T21:26:22.874Z,101055.41
2022-09-07T21:28:57.396Z,101049.34
2022-09-07T21:31:24.702Z,101052.22
2022-09-07T21:33:59.293Z,101042.94
2022-09-07T21:36:26.749Z,101024.31
2022-09-07T21:38:54.069Z,101029.16
2022-09-07T21:41:22.298Z,101043.97
2022-09-07T21:43:48.840Z,101055.13
2022-09-07T21:46:18.255Z,101059.19
2022-09-07T21:48:45.842Z,101056.09
2022-09-07T21:51:13.957Z,101044.69
2022-09-07T21:53:41.148Z,101042.22
2022-09-07T21:56:11.040Z,101050.66
2022-09-07T21:58:37.474Z,101033.72
2022-09-07T22:01:18.298Z,101017.09
2022-09-07T22:03:46.745Z,101036.50
2022-09-07T22:06:14.081Z,101011.38
2022-09-07T22:08:41.784Z,101023.97
2022-09-07T22:11:11.424Z,101030.50
2022-09-07T22:13:38.439Z,101028.75
2022-09-07T22:16:06.048Z,101019.50
2022-09-07T22:18:32.543Z,101033.59
2022-09-07T22:21:07.274Z,101038.50
2022-09-07T22:23:35.654Z,101046.88
2022-09-07T22:26:02.432Z,101053.44
2022-09-07T22:28:29.785Z,101048.44
2022-09-07T22:31:06.879Z,101011.31
2022-09-07T22:33:33.401Z,100988.97
2022-09-07T22:36:15.843Z,101047.44
2022-09-07T22:38:44.193Z,101057.59
2022-09-07T22:41:18.631Z,101019.09
2022-09-07T22:43:45.558Z,101032.63
2022-09-07T22:46:13.401Z,101043.03
2022-09-07T22:48:41.907Z,101042.69
2022-09-07T22:51:09.766Z,101045.88
2022-09-07T22:53:39.388Z,101040.09
2022-09-07T22:56:11.947Z,101030.22
2022-09-07T22:58:38.704Z,101004.56
2022-09-07T23:01:06.324Z,101026.44
2022-09-07T23:03:34.659Z,101024.34
2022-09-07T23:06:01.540Z,101008.69
2022-09-07T23:08:28.080Z,101000.50
2022-09-07T23:10:54.512Z,100998.53
2022-09-07T23:13:21.043Z,101011.41
2022-09-07T23:15:48.345Z,101016.13
2022-09-07T23:18:16.526Z,101013.97
2022-09-07T23:20:43.074Z,101015.72
2022-09-07T23:23:10.125Z,101008.25
2022-09-07T23:25:37.924Z,101013.84
2022-09-07T23:28:05.786Z,101007.66
2022-09-07T23:30:32.169Z,101007.41
2022-09-07T23:32:58.700Z,100997.84
2022-09-07T23:35:25.091Z,100996.44
2022-09-07T23:37:51.491Z,100993.72
2022-09-07T23:40:17.874Z,101001.47
2022-09-07T23:42:44.277Z,100971.91
2022-09-07T23:45:10.867Z,101001.19
2022-09-07T23:47:37.270Z,100975.09
2022-09-07T23:50:04.073Z,101005.47
2022-09-07T23:52:31.248Z,100994.81
2022-09-07T23:54:57.699Z,100964.63
2022-09-07T23:57:24.096Z,100992.84
2022-09-07T23:59:50.484Z,100953.56
